Time;durP1;ratioP1;P1;durP2;ratioP2;P2;SDS_P1;SDS_P2;PMS_P1;PMS_P2;Temp;Humidity;BMP_temperature;BMP_pressure;BME280_temperature;BME280_humidity;BME280_pressure;Samples;Min_cycle;Max_cycle;Signal;HPM_P1;HPM_P2
2021/09/14 00:01:25;;;;;;;;;6.75;6.75;;;;;20.07;62.19;99992.78;5037709;28;45319;-85
2021/09/14 00:03:50;;;;;;;;;8.00;7.75;;;;;20.09;62.21;100003.41;5020378;28;45273;-86
2021/09/14 00:06:16;;;;;;;;;10.00;8.00;;;;;20.01;62.65;99990.72;5038569;28;45373;-86
2021/09/14 00:08:41;;;;;;;;;8.25;8.25;;;;;20.03;62.62;99995.97;5020016;28;47172;-86
2021/09/14 00:11:06;;;;;;;;;11.25;8.75;;;;;20.09;62.29;100011.50;5038506;28;45204;-86
2021/09/14 00:13:32;;;;;;;;;9.50;8.00;;;;;19.95;62.48;99997.63;5038226;28;45233;-86
2021/09/14 00:15:57;;;;;;;;;7.25;7.25;;;;;20.07;62.24;100005.44;5038835;28;45303;-86
2021/09/14 00:18:23;;;;;;;;;9.25;8.00;;;;;19.99;62.54;99993.59;5038138;28;46561;-86
2021/09/14 00:20:48;;;;;;;;;10.00;9.00;;;;;20.05;62.67;99988.53;5038743;28;45179;-85
2021/09/14 00:23:13;;;;;;;;;13.00;10.50;;;;;20.01;61.76;99990.72;5020430;28;45204;-87
2021/09/14 00:25:38;;;;;;;;;9.00;9.00;;;;;20.08;62.23;99986.38;5038396;28;45269;-86
2021/09/14 00:28:04;;;;;;;;;14.25;11.50;;;;;20.08;62.33;99989.09;5037960;28;45457;-87
2021/09/14 00:30:29;;;;;;;;;12.25;9.50;;;;;19.95;62.37;99961.66;5020109;28;46141;-86
2021/09/14 00:32:55;;;;;;;;;12.00;10.25;;;;;20.17;61.60;99995.38;5020155;28;45335;-86
2021/09/14 00:35:20;;;;;;;;;11.00;9.50;;;;;20.17;62.19;99992.66;5038354;28;45215;-86
2021/09/14 00:37:45;;;;;;;;;9.00;9.00;;;;;20.16;62.29;100007.16;5037770;28;45223;-86
2021/09/14 00:40:11;;;;;;;;;11.00;9.25;;;;;20.06;62.13;99993.78;5019947;28;45209;-86
2021/09/14 00:42:37;;;;;;;;;8.25;8.25;;;;;20.03;62.58;99994.09;5038319;28;45092;-86
2021/09/14 00:45:04;;;;;;;;;7.25;7.25;;;;;20.02;62.11;99978.06;5019967;28;45303;-86
2021/09/14 00:47:30;;;;;;;;;10.00;8.75;;;;;19.97;62.84;99979.41;5037916;28;48591;-86
2021/09/14 00:49:55;;;;;;;;;10.75;9.75;;;;;20.12;62.42;100003.09;5019978;28;45275;-86
2021/09/14 00:52:20;;;;;;;;;9.00;8.00;;;;;19.91;62.92;99987.28;5019697;28;45323;-86
2021/09/14 00:54:46;;;;;;;;;11.00;8.25;;;;;19.94;62.77;100000.47;5037366;28;45280;-86
2021/09/14 00:57:11;;;;;;;;;9.00;7.75;;;;;20.00;62.83;100016.84;5019693;28;47872;-86
2021/09/14 00:59:36;;;;;;;;;9.00;9.00;;;;;19.83;62.89;100002.41;5019414;28;45600;-86
2021/09/14 01:02:02;;;;;;;;;10.00;9.00;;;;;19.80;62.87;100015.38;5037788;28;45301;-86
2021/09/14 01:04:28;;;;;;;;;8.75;8.25;;;;;19.80;63.12;100032.41;5019620;28;45441;-86
2021/09/14 01:06:54;;;;;;;;;8.25;8.00;;;;;19.74;63.18;100026.75;5037376;28;46346;-87
2021/09/14 01:09:20;;;;;;;;;8.00;8.00;;;;;19.85;62.85;100037.31;5037662;28;45176;-86
2021/09/14 01:11:46;;;;;;;;;8.25;8.25;;;;;19.81;62.83;100033.28;5019283;28;45131;-85
2021/09/14 01:14:11;;;;;;;;;9.50;7.00;;;;;19.90;63.13;100051.19;5037609;28;45239;-86
2021/09/14 01:16:39;;;;;;;;;9.00;8.75;;;;;19.67;63.14;100003.13;5019309;28;47058;-86
2021/09/14 01:19:07;;;;;;;;;9.00;9.00;;;;;19.88;63.09;100028.94;5037408;28;45248;-86
2021/09/14 01:21:32;;;;;;;;;10.75;9.00;;;;;19.71;63.34;100000.97;5037495;28;45328;-86
2021/09/14 01:23:59;;;;;;;;;9.75;7.75;;;;;19.86;63.09;100030.09;5019450;28;45223;-85
2021/09/14 01:26:25;;;;;;;;;12.00;9.25;;;;;19.83;63.36;100033.94;5037460;28;45526;-86
2021/09/14 01:28:51;;;;;;;;;12.25;10.75;;;;;19.64;63.24;100008.00;5037173;28;45208;-85
2021/09/14 01:31:18;;;;;;;;;11.00;9.75;;;;;19.62;63.41;100010.84;5019384;28;45212;-85
2021/09/14 01:33:50;;;;;;;;;10.75;10.75;;;;;19.75;63.10;100041.94;5018960;28;45449;-86
2021/09/14 01:36:17;;;;;;;;;10.25;9.25;;;;;19.62;63.10;100018.06;5019032;28;47316;-85
2021/09/14 01:38:44;;;;;;;;;10.00;10.00;;;;;19.71;63.09;100038.72;5036907;28;45264;-85
2021/09/14 01:41:10;;;;;;;;;13.75;9.75;;;;;19.71;63.49;100045.94;5019073;28;45240;-86
2021/09/14 01:43:36;;;;;;;;;10.75;10.00;;;;;19.59;62.91;100043.50;5035769;28;45244;-86
2021/09/14 01:46:02;;;;;;;;;11.00;10.00;;;;;19.67;62.97;100067.00;5037189;28;46162;-85
2021/09/14 01:48:28;;;;;;;;;9.75;9.75;;;;;19.69;63.27;100062.28;5018840;28;46114;-85
2021/09/14 01:50:54;;;;;;;;;11.50;10.25;;;;;19.52;62.98;100033.50;5037189;28;45157;-85
2021/09/14 01:53:19;;;;;;;;;8.25;8.25;;;;;19.52;63.67;100033.50;5036852;28;45307;-86
2021/09/14 01:55:45;;;;;;;;;11.50;7.00;;;;;19.64;63.57;100054.69;5035208;28;48146;-86
2021/09/14 01:58:11;;;;;;;;;12.25;9.50;;;;;19.66;63.36;100052.66;5036689;28;45144;-86
2021/09/14 02:00:41;;;;;;;;;9.00;9.00;;;;;19.66;63.46;100055.34;5031550;28;45267;-87
2021/09/14 02:03:22;;;;;;;;;12.75;10.00;;;;;19.60;63.57;100039.81;5015356;28;45246;-86
2021/09/14 02:09:10;;;;;;;;;11.00;9.00;;;;;19.77;63.33;100064.22;4955365;28;45350;-86
2021/09/14 02:43:37;;;;;;;;;13.50;9.00;;;;;19.41;67.93;99997.72;4960411;28;45260;-86
2021/09/14 02:59:36;;;;;;;;;11.00;8.75;;;;;19.11;69.90;99970.16;4935140;28;45202;-87
2021/09/14 03:02:03;;;;;;;;;8.50;8.00;;;;;19.21;69.89;99985.38;4935565;28;45561;-87
2021/09/14 03:04:29;;;;;;;;;10.50;10.00;;;;;19.05;69.32;99961.84;4936283;28;45218;-87
2021/09/14 03:06:54;;;;;;;;;11.50;10.00;;;;;18.92;68.97;99963.06;4935591;28;45180;-87
2021/09/14 03:09:20;;;;;;;;;10.00;9.50;;;;;18.95;69.88;99975.38;4935478;28;45368;-88
2021/09/14 03:11:45;;;;;;;;;10.00;9.00;;;;;18.89;69.88;99968.75;4936078;28;45389;-86
2021/09/14 03:14:11;;;;;;;;;9.00;9.00;;;;;18.99;69.88;99990.25;4935424;28;45436;-87
2021/09/14 03:16:36;;;;;;;;;9.75;8.00;;;;;19.00;70.54;99981.16;4919473;28;45498;-85
2021/09/14 03:19:03;;;;;;;;;12.00;12.00;;;;;19.03;71.04;99974.63;4934424;28;45405;-87
2021/09/14 03:21:28;;;;;;;;;7.50;7.50;;;;;18.97;70.95;99958.06;4935137;28;45524;-87
2021/09/14 03:23:53;;;;;;;;;11.25;9.75;;;;;18.99;70.96;99959.78;4935399;28;45096;-87
2021/09/14 03:26:19;;;;;;;;;10.00;8.75;;;;;18.98;70.88;99961.59;4935537;28;45186;-86
2021/09/14 03:28:44;;;;;;;;;10.00;9.50;;;;;19.02;70.84;99967.53;4983608;28;47114;-86
2021/09/14 03:31:10;;;;;;;;;10.00;8.25;;;;;19.07;70.67;99976.84;5016428;28;45231;-87
2021/09/14 03:33:35;;;;;;;;;11.50;9.00;;;;;18.95;71.36;99954.69;4997967;28;45265;-86
2021/09/14 03:36:01;;;;;;;;;9.75;8.50;;;;;19.03;71.36;99967.38;4999684;28;45265;-87
2021/09/14 03:38:26;;;;;;;;;11.00;9.75;;;;;19.04;71.62;99963.69;5019441;28;46631;-87
2021/09/14 03:40:52;;;;;;;;;10.50;9.25;;;;;19.02;71.58;99963.00;5018197;28;45154;-86
2021/09/14 03:43:18;;;;;;;;;9.25;7.25;;;;;18.96;72.44;99939.38;5019413;28;45192;-85
2021/09/14 03:45:46;;;;;;;;;10.00;8.75;;;;;18.88;72.04;99923.97;5001694;28;45275;-85
2021/09/14 03:48:12;;;;;;;;;8.75;8.50;;;;;18.85;71.89;99918.84;5001383;28;47142;-86
2021/09/14 03:50:37;;;;;;;;;14.00;8.75;;;;;18.58;72.31;99904.50;5019539;28;45537;-86
2021/09/14 03:53:03;;;;;;;;;11.50;10.00;;;;;18.66;72.63;99924.41;5019218;28;45286;-86
2021/09/14 03:55:29;;;;;;;;;13.00;11.75;;;;;18.60;72.87;99901.63;5019900;28;45238;-86
2021/09/14 03:57:54;;;;;;;;;14.00;13.25;;;;;18.45;72.77;99864.47;5001247;28;47286;-86
2021/09/14 04:00:20;;;;;;;;;10.00;10.00;;;;;18.50;72.54;99887.38;5019532;28;45234;-86
2021/09/14 04:03:22;;;;;;;;;10.25;10.25;;;;;18.19;73.43;99861.66;5019427;28;45289;-86
2021/09/14 04:10:35;;;;;;;;;12.75;11.50;;;;;18.39;73.63;99913.53;5019117;28;45245;-86
2021/09/14 04:13:01;;;;;;;;;13.75;13.75;;;;;18.38;73.80;99929.81;5019570;28;45219;-86
2021/09/14 04:15:26;;;;;;;;;13.25;12.75;;;;;18.35;73.98;99933.66;5001217;28;45279;-87
2021/09/14 04:17:51;;;;;;;;;10.50;10.50;;;;;18.26;73.78;99915.72;5017353;28;48021;-87
2021/09/14 04:20:17;;;;;;;;;14.50;13.50;;;;;18.37;73.69;99945.13;5019312;28;45526;-87
2021/09/14 04:22:42;;;;;;;;;9.00;8.00;;;;;18.36;73.80;99929.13;5001147;28;45218;-87
2021/09/14 04:25:08;;;;;;;;;9.75;9.75;;;;;18.21;73.50;99885.72;5019001;28;45317;-86
2021/09/14 04:27:33;;;;;;;;;16.50;10.00;;;;;18.19;74.00;99855.44;5000794;28;46825;-88
2021/09/14 04:29:58;;;;;;;;;10.50;10.25;;;;;18.20;74.44;99852.59;5001155;28;45687;-86
2021/09/14 04:32:24;;;;;;;;;11.25;9.00;;;;;18.32;74.88;99865.84;5019015;28;45365;-87
2021/09/14 04:34:49;;;;;;;;;14.50;12.50;;;;;18.10;75.60;99831.16;5001302;28;45498;-86
2021/09/14 04:37:14;;;;;;;;;11.25;11.25;;;;;18.16;75.14;99837.75;5000835;28;47785;-87
2021/09/14 04:39:40;;;;;;;;;13.00;11.25;;;;;18.19;75.41;99823.16;5019209;28;45149;-87
2021/09/14 04:42:05;;;;;;;;;13.50;12.25;;;;;18.36;75.37;99834.94;5019215;28;45148;-87
2021/09/14 04:44:30;;;;;;;;;12.50;11.00;;;;;18.36;74.89;99833.09;5001666;28;45327;-86
2021/09/14 04:46:56;;;;;;;;;12.00;10.25;;;;;18.24;75.09;99812.78;5017568;28;45259;-87
2021/09/14 04:49:23;;;;;;;;;11.00;11.00;;;;;18.37;74.52;99842.00;5019009;28;45270;-87
2021/09/14 04:51:48;;;;;;;;;11.25;11.00;;;;;18.20;74.99;99814.94;5018940;28;45417;-88
2021/09/14 04:54:13;;;;;;;;;11.75;10.75;;;;;18.18;75.02;99816.91;5000764;28;45406;-85
2021/09/14 04:56:38;;;;;;;;;12.00;12.00;;;;;18.26;75.23;99818.88;5000459;28;47357;-84
2021/09/14 04:59:04;;;;;;;;;11.50;10.75;;;;;18.21;75.40;99815.78;5000807;28;45299;-86
2021/09/14 05:01:29;;;;;;;;;9.50;9.50;;;;;18.22;75.98;99822.84;5018969;28;45236;-86
2021/09/14 05:03:54;;;;;;;;;12.75;10.50;;;;;18.18;75.47;99821.47;5017929;28;45227;-86
2021/09/14 05:06:20;;;;;;;;;12.00;11.50;;;;;18.31;75.18;99850.69;5017633;28;46204;-87
2021/09/14 05:08:45;;;;;;;;;12.25;12.25;;;;;18.25;75.35;99844.06;5018395;28;45198;-87
2021/09/14 05:11:13;;;;;;;;;13.75;9.50;;;;;18.17;74.94;99847.53;5018467;28;45179;-87
2021/09/14 05:13:38;;;;;;;;;11.50;10.25;;;;;18.05;75.16;99838.81;5000246;28;45355;-86
2021/09/14 05:16:04;;;;;;;;;10.25;9.00;;;;;17.94;75.25;99833.63;5018568;28;46306;-87
2021/09/14 05:18:29;;;;;;;;;11.00;8.50;;;;;18.01;75.58;99848.16;5000018;28;45527;-86
2021/09/14 05:20:56;;;;;;;;;13.25;10.25;;;;;18.19;75.35;99876.97;5000636;28;45170;-87
2021/09/14 05:23:32;;;;;;;;;12.00;9.25;;;;;18.14;75.79;99863.94;5018084;28;45243;-87
2021/09/14 05:26:01;;;;;;;;;9.25;9.25;;;;;17.99;76.03;99843.97;5018561;28;46384;-87
2021/09/14 05:28:26;;;;;;;;;13.25;9.25;;;;;18.13;75.77;99867.66;5000136;28;45493;-87
2021/09/14 05:30:52;;;;;;;;;12.25;12.25;;;;;18.21;76.28;99873.16;5000481;28;45223;-88
2021/09/14 05:33:17;;;;;;;;;11.25;10.25;;;;;18.14;75.99;99866.66;5000319;28;45174;-86
2021/09/14 05:35:48;;;;;;;;;10.50;9.75;;;;;18.30;75.76;99895.59;5018071;28;45323;-86
2021/09/14 05:38:15;;;;;;;;;10.00;9.00;;;;;18.28;75.86;99908.34;5017874;28;45211;-87
2021/09/14 05:40:41;;;;;;;;;10.00;9.25;;;;;18.27;75.43;99912.03;5018195;28;45239;-87
2021/09/14 05:43:07;;;;;;;;;10.25;9.25;;;;;18.32;75.38;99925.88;5000433;28;45362;-88
2021/09/14 05:45:32;;;;;;;;;10.50;9.25;;;;;18.22;75.69;99925.94;4999588;28;47314;-87
2021/09/14 05:47:59;;;;;;;;;10.75;10.00;;;;;18.24;75.96;99928.47;5000132;28;45365;-88
2021/09/14 05:50:25;;;;;;;;;8.50;8.50;;;;;18.34;75.58;99944.56;4999938;28;45257;-89
2021/09/14 05:52:51;;;;;;;;;9.00;9.00;;;;;18.34;75.60;99958.91;5017836;28;45285;-87
2021/09/14 05:55:17;;;;;;;;;11.00;10.50;;;;;18.21;75.28;99947.63;5016399;28;47225;-87
2021/09/14 05:57:42;;;;;;;;;11.25;9.50;;;;;18.20;75.77;99962.06;5018155;28;45160;-87
2021/09/14 06:00:08;;;;;;;;;9.00;8.25;;;;;18.34;75.91;99984.94;5019106;28;45229;-88
2021/09/14 06:02:33;;;;;;;;;13.50;10.00;;;;;18.32;76.00;99998.53;5018917;28;45345;-85
2021/09/14 06:04:59;;;;;;;;;7.00;6.25;;;;;18.33;75.31;100002.06;5019368;28;46206;-86
2021/09/14 06:07:24;;;;;;;;;13.00;11.50;;;;;18.29;75.56;99991.59;5018945;28;45192;-87
2021/09/14 06:09:50;;;;;;;;;7.25;7.25;;;;;18.39;75.65;99996.94;5019105;28;45179;-86
2021/09/14 06:12:15;;;;;;;;;11.75;10.75;;;;;18.42;75.71;100003.88;5018605;28;45266;-87
2021/09/14 06:14:40;;;;;;;;;12.25;10.75;;;;;18.45;75.91;100019.72;5018882;28;46171;-90
2021/09/14 06:17:06;;;;;;;;;10.00;8.25;;;;;18.46;76.09;100011.50;5019550;28;45228;-92
2021/09/14 06:19:31;;;;;;;;;11.25;10.00;;;;;18.46;75.38;100013.34;5019424;28;45246;-88
2021/09/14 06:21:56;;;;;;;;;12.75;11.25;;;;;18.59;75.30;100026.47;5019377;28;45224;-90
2021/09/14 06:24:22;;;;;;;;;12.00;10.00;;;;;18.63;75.57;100015.25;5017819;28;46296;-89
2021/09/14 06:26:47;;;;;;;;;9.00;8.25;;;;;18.59;75.38;99988.78;5019451;28;45196;-90
2021/09/14 06:29:13;;;;;;;;;13.25;11.25;;;;;18.66;75.17;99991.72;5019791;28;45214;-89
2021/09/14 06:31:38;;;;;;;;;7.50;7.00;;;;;18.66;75.15;99989.88;5019747;28;45199;-88
2021/09/14 06:34:03;;;;;;;;;10.50;9.50;;;;;18.64;75.21;99973.03;5017692;28;45976;-86
2021/09/14 06:36:28;;;;;;;;;9.25;9.00;;;;;18.70;75.69;99974.25;5020011;28;45258;-89
2021/09/14 06:38:54;;;;;;;;;13.00;11.75;;;;;18.68;75.60;99982.47;5018482;28;45298;-90
2021/09/14 06:41:21;;;;;;;;;9.00;8.00;;;;;18.75;75.55;99998.88;5018582;28;45215;-90
2021/09/14 06:43:46;;;;;;;;;8.00;8.00;;;;;18.78;75.71;100002.13;5018680;28;46313;-88
2021/09/14 06:46:12;;;;;;;;;9.50;8.50;;;;;18.81;75.91;100000.94;5018689;28;45307;-90
2021/09/14 06:48:37;;;;;;;;;12.25;9.75;;;;;18.84;75.91;100000.69;5018126;28;45193;-88
2021/09/14 06:51:02;;;;;;;;;14.50;10.50;;;;;18.84;75.88;100002.50;5018621;28;45231;-88
2021/09/14 06:53:29;;;;;;;;;11.50;8.25;;;;;18.84;75.21;100007.88;5017057;28;45279;-87
2021/09/14 06:55:55;;;;;;;;;11.50;10.50;;;;;18.73;75.77;99996.34;5016711;28;45286;-88
2021/09/14 06:58:20;;;;;;;;;11.75;9.75;;;;;18.76;75.70;100004.13;5017147;28;45266;-86
2021/09/14 07:00:45;;;;;;;;;8.25;8.25;;;;;18.72;75.58;99994.63;5016902;28;45343;-87
2021/09/14 07:03:11;;;;;;;;;11.25;9.00;;;;;18.70;76.30;100002.03;5016413;28;45665;-87
2021/09/14 07:05:36;;;;;;;;;9.00;9.00;;;;;18.67;76.40;99986.19;5016752;28;45277;-87
2021/09/14 07:08:01;;;;;;;;;9.00;9.00;;;;;18.65;76.49;99992.72;5017134;28;45221;-87
2021/09/14 07:10:27;;;;;;;;;11.75;10.25;;;;;18.59;76.76;99988.78;5015660;28;45327;-87
2021/09/14 07:12:52;;;;;;;;;8.00;7.75;;;;;18.71;76.66;99995.66;5016097;28;46078;-87
2021/09/14 07:15:18;;;;;;;;;9.75;8.25;;;;;18.76;76.83;99995.19;5017071;28;45368;-88
2021/09/14 07:17:43;;;;;;;;;8.25;7.00;;;;;18.78;76.88;99998.56;5016869;28;45199;-87
2021/09/14 07:20:09;;;;;;;;;12.75;10.00;;;;;18.80;77.09;99991.22;5017472;28;45244;-89
2021/09/14 07:22:35;;;;;;;;;10.75;9.00;;;;;18.77;77.16;99991.50;5022489;28;47473;-93
2021/09/14 07:25:01;;;;;;;;;9.75;9.00;;;;;18.86;77.12;100001.34;5041418;28;45113;-93
2021/09/14 07:27:26;;;;;;;;;14.25;11.50;;;;;18.88;77.10;99996.69;5043615;28;44635;-92
2021/09/14 07:29:52;;;;;;;;;9.75;9.75;;;;;18.90;77.28;100002.78;5045804;28;44530;-93
2021/09/14 07:32:18;;;;;;;;;14.25;11.00;;;;;18.91;77.23;100007.19;5045218;28;44921;-93
2021/09/14 07:34:43;;;;;;;;;9.25;9.25;;;;;18.90;77.11;100001.94;5046299;28;44900;-93
2021/09/14 07:37:09;;;;;;;;;8.50;8.25;;;;;18.88;77.37;100007.47;5028631;28;44608;-93
2021/09/14 07:39:34;;;;;;;;;13.00;9.75;;;;;18.88;77.42;100002.06;5046798;28;44579;-93
2021/09/14 07:41:59;;;;;;;;;8.25;8.25;;;;;18.88;77.47;100009.31;5046049;28;45367;-93
2021/09/14 07:44:25;;;;;;;;;9.00;9.00;;;;;18.85;77.32;100002.34;5045818;28;44969;-92
2021/09/14 07:46:51;;;;;;;;;10.25;9.50;;;;;18.85;77.29;100010.44;5046029;28;44527;-90
2021/09/14 07:49:17;;;;;;;;;9.00;9.00;;;;;18.84;77.55;99999.81;5046783;28;44616;-92
2021/09/14 07:51:42;;;;;;;;;8.25;7.50;;;;;18.80;77.45;99994.72;5043082;28;46978;-91
2021/09/14 07:54:07;;;;;;;;;12.00;9.75;;;;;18.83;77.85;100006.22;5044234;28;44742;-93
2021/09/14 07:56:32;;;;;;;;;8.25;8.25;;;;;18.83;77.78;100003.53;5044373;28;44819;-92
2021/09/14 07:58:58;;;;;;;;;10.00;9.25;;;;;18.83;78.36;100000.84;5041802;28;44547;-93
2021/09/14 08:01:23;;;;;;;;;13.75;13.00;;;;;18.82;78.57;99999.97;5039798;28;45170;-90
2021/09/14 08:03:48;;;;;;;;;10.00;10.00;;;;;18.82;78.40;100002.66;5035415;28;45265;-92
2021/09/14 08:06:14;;;;;;;;;9.00;9.00;;;;;18.80;78.37;100007.38;5039213;28;45135;-92
2021/09/14 08:08:39;;;;;;;;;9.25;9.25;;;;;18.80;78.85;100004.66;5037153;28;45198;-90
2021/09/14 08:11:05;;;;;;;;;10.00;10.00;;;;;18.84;78.70;100022.22;5037215;28;45157;-91
2021/09/14 08:13:30;;;;;;;;;9.75;9.00;;;;;18.83;78.58;100008.91;5056082;28;44630;-92
2021/09/14 08:15:55;;;;;;;;;16.50;8.75;;;;;18.86;78.73;100017.53;5057417;28;45046;-90
2021/09/14 08:18:21;;;;;;;;;10.00;8.75;;;;;18.86;79.09;100014.00;5042211;28;44734;-92
2021/09/14 08:20:46;;;;;;;;;9.25;9.25;;;;;18.95;78.92;100023.88;5055145;28;45095;-92
2021/09/14 08:23:11;;;;;;;;;10.00;9.00;;;;;18.97;78.60;100024.59;5053595;28;45125;-92
2021/09/14 08:25:37;;;;;;;;;12.50;7.75;;;;;19.01;78.58;100025.09;5031031;28;45200;-91
2021/09/14 08:28:04;;;;;;;;;10.25;10.25;;;;;18.99;78.60;100022.56;5043298;28;45304;-91
2021/09/14 08:30:29;;;;;;;;;14.00;10.50;;;;;19.02;79.09;100040.28;5043852;28;45383;-93
2021/09/14 08:32:55;;;;;;;;;12.25;10.75;;;;;19.02;78.77;100042.97;5043509;28;45274;-93
2021/09/14 08:35:20;;;;;;;;;11.00;10.00;;;;;19.01;78.90;100044.84;5042882;28;45254;-92
2021/09/14 08:37:45;;;;;;;;;13.75;12.50;;;;;19.01;79.36;100049.34;5045635;28;45166;-92
2021/09/14 08:40:11;;;;;;;;;12.00;11.00;;;;;18.97;79.47;100038.06;5056197;28;45231;-92
2021/09/14 08:42:38;;;;;;;;;12.00;11.75;;;;;18.93;79.86;100029.41;5064494;28;45124;-93
2021/09/14 08:45:06;;;;;;;;;10.00;8.75;;;;;18.88;80.12;100031.69;5053227;28;44575;-89
2021/09/14 08:52:40;;;;;;;;;11.50;10.00;;;;;18.51;80.55;99994.06;5052796;22;45527;-93
2021/09/14 08:55:06;;;;;;;;;12.00;10.00;;;;;18.54;81.28;99994.63;5018785;28;44654;-92
2021/09/14 08:57:32;;;;;;;;;11.25;9.75;;;;;18.45;81.50;99974.84;5027530;28;44648;-93
2021/09/14 08:59:58;;;;;;;;;11.00;9.75;;;;;18.68;81.21;100013.94;5026679;28;45294;-91
2021/09/14 09:02:24;;;;;;;;;8.75;8.75;;;;;18.73;81.53;100025.97;5013006;28;44633;-93
2021/09/14 09:04:58;;;;;;;;;13.50;13.25;;;;;18.77;81.80;100021.97;5012312;28;44723;-93
2021/09/14 09:07:35;;;;;;;;;8.75;8.75;;;;;18.87;81.99;100030.03;5011430;28;45279;-92
2021/09/14 09:10:26;;;;;;;;;8.00;7.75;;;;;18.97;81.63;100030.81;5012345;28;45204;-91
2021/09/14 09:12:52;;;;;;;;;11.00;11.00;;;;;19.01;81.81;100025.97;5003934;28;45261;-92
2021/09/14 09:15:25;;;;;;;;;9.50;8.50;;;;;19.07;81.26;100025.34;5011482;28;44598;-92
2021/09/14 09:18:07;;;;;;;;;11.50;10.00;;;;;19.14;81.51;100023.75;5003931;28;45247;-92
2021/09/14 09:20:35;;;;;;;;;11.75;9.50;;;;;19.25;81.35;100024.50;5002577;28;46143;-92
2021/09/14 09:23:07;;;;;;;;;12.50;12.00;;;;;19.31;81.60;100019.34;5002491;28;45165;-92
2021/09/14 09:25:34;;;;;;;;;12.00;10.00;;;;;19.46;80.96;100035.81;5002870;28;45198;-94
2021/09/14 09:28:08;;;;;;;;;12.25;11.00;;;;;19.54;80.80;100037.75;5003437;28;45207;-92
2021/09/14 09:30:37;;;;;;;;;10.75;9.25;;;;;19.63;80.40;100039.50;5003132;28;46805;-92
2021/09/14 09:33:03;;;;;;;;;10.00;8.75;;;;;19.68;80.14;100039.00;5002645;28;45597;-92
2021/09/14 09:35:34;;;;;;;;;10.00;10.00;;;;;19.74;79.96;100048.31;5003757;28;45155;-93
2021/09/14 09:38:00;;;;;;;;;8.75;8.50;;;;;19.78;80.20;100037.09;5004148;28;45418;-93
2021/09/14 09:40:31;;;;;;;;;8.00;7.75;;;;;19.86;80.54;100040.88;5005089;28;46451;-92
2021/09/14 09:43:03;;;;;;;;;8.00;8.00;;;;;19.95;79.86;100040.78;5004846;28;45175;-92
2021/09/14 09:45:29;;;;;;;;;10.75;9.75;;;;;20.04;79.73;100041.69;5008791;28;44668;-91
2021/09/14 09:47:54;;;;;;;;;11.50;10.50;;;;;20.09;79.39;100030.41;5015672;28;44681;-93
2021/09/14 09:52:56;;;;;;;;;10.25;7.25;;;;;20.16;79.73;100032.28;5224218;22;44906;-93
2021/09/14 09:55:23;;;;;;;;;9.00;8.00;;;;;20.09;79.00;100009.66;5043545;28;44653;-93
2021/09/14 10:10:53;;;;;;;;;10.00;7.25;;;;;21.13;76.98;99996.03;5766754;22;45926;-93
2021/09/14 10:13:29;;;;;;;;;7.75;7.75;;;;;21.47;77.75;100006.69;5052337;28;44770;-93
2021/09/14 10:15:57;;;;;;;;;11.00;9.00;;;;;22.01;76.11;100032.38;5049662;28;44539;-92
2021/09/14 10:18:30;;;;;;;;;11.25;8.75;;;;;22.41;74.13;100019.75;5047560;28;45224;-93
2021/09/14 10:20:57;;;;;;;;;9.00;9.00;;;;;22.65;73.33;100023.38;5028313;28;47550;-93
2021/09/14 10:23:30;;;;;;;;;9.50;7.00;;;;;22.89;73.44;100012.41;5024891;28;45246;-94
2021/09/14 10:26:10;;;;;;;;;8.00;7.00;;;;;23.14;71.81;99989.75;5045362;28;44631;-93
2021/09/14 10:28:49;;;;;;;;;6.00;6.00;;;;;23.47;71.85;100005.75;5049273;28;44680;-93
2021/09/14 10:31:27;;;;;;;;;6.75;6.00;;;;;23.91;71.29;100033.03;5057839;28;46512;-92
2021/09/14 10:34:07;;;;;;;;;5.50;5.25;;;;;24.18;70.11;100032.59;5047034;28;45145;-93
2021/09/14 10:36:34;;;;;;;;;6.00;4.75;;;;;24.33;66.12;100033.44;5041417;28;45280;-93
2021/09/14 10:39:00;;;;;;;;;9.00;7.50;;;;;24.33;68.28;100036.16;5041600;28;44610;-95
2021/09/14 10:41:36;;;;;;;;;8.75;6.00;;;;;24.29;68.12;100019.38;5045543;28;45634;-92
2021/09/14 10:44:03;;;;;;;;;9.50;7.75;;;;;24.37;67.87;100026.59;5044921;28;44931;-93
2021/09/14 10:46:31;;;;;;;;;6.00;6.00;;;;;24.38;67.05;100030.97;5043447;28;45247;-93
2021/09/14 10:48:56;;;;;;;;;6.00;6.00;;;;;24.40;66.47;100034.38;5039511;28;45168;-93
2021/09/14 10:51:21;;;;;;;;;8.00;6.00;;;;;24.37;63.74;100034.75;5047726;28;46465;-91
2021/09/14 10:54:00;;;;;;;;;6.25;5.75;;;;;24.26;65.92;100037.94;5057318;28;45245;-93
2021/09/14 10:56:28;;;;;;;;;7.25;6.75;;;;;24.24;67.38;100040.84;5046606;28;45200;-90
2021/09/14 10:58:55;;;;;;;;;8.50;7.25;;;;;24.29;66.45;100035.69;5047099;28;44589;-92
2021/09/14 11:01:26;;;;;;;;;5.75;5.75;;;;;24.41;65.54;100041.50;5045938;28;46409;-87
2021/09/14 11:04:06;;;;;;;;;5.50;5.50;;;;;24.47;65.33;100042.63;5039470;28;45233;-88
2021/09/14 11:06:32;;;;;;;;;9.00;6.50;;;;;24.53;64.87;100041.84;5036907;28;45549;-88
2021/09/14 11:09:02;;;;;;;;;7.00;5.50;;;;;24.54;65.02;100048.13;5038446;28;45191;-85
2021/09/14 11:11:27;;;;;;;;;9.50;8.00;;;;;24.55;63.76;100050.66;5033498;28;45458;-87
2021/09/14 11:13:53;;;;;;;;;7.00;6.00;;;;;24.60;65.32;100052.84;5030938;28;45345;-85
2021/09/14 11:16:19;;;;;;;;;8.00;7.00;;;;;24.66;64.99;100037.66;5025317;28;45405;-86
2021/09/14 11:18:44;;;;;;;;;6.75;6.75;;;;;24.75;64.81;100041.94;5016517;28;45223;-86
2021/09/14 11:21:18;;;;;;;;;9.00;7.25;;;;;24.88;65.01;100047.53;5016192;28;46133;-86
2021/09/14 11:23:46;;;;;;;;;7.00;6.50;;;;;25.05;65.42;100045.44;5015742;28;45243;-87
2021/09/14 11:26:14;;;;;;;;;9.25;7.75;;;;;25.28;64.03;100048.00;5016154;28;45268;-86
2021/09/14 11:28:42;;;;;;;;;6.75;6.75;;;;;25.55;61.95;100048.25;5016167;28;45311;-86
2021/09/14 11:31:11;;;;;;;;;6.50;6.50;;;;;25.75;62.98;100042.16;5017233;28;46169;-86
2021/09/14 11:33:41;;;;;;;;;7.50;6.25;;;;;25.96;62.10;100039.38;5018029;28;45411;-85
2021/09/14 11:36:08;;;;;;;;;5.50;5.50;;;;;26.25;62.56;100037.53;5016283;28;45210;-85
2021/09/14 11:38:34;;;;;;;;;5.50;5.00;;;;;26.51;60.12;100031.38;5016242;28;45256;-86
2021/09/14 11:41:01;;;;;;;;;8.00;6.25;;;;;26.70;60.64;100045.31;5014429;28;47552;-84
2021/09/14 11:43:29;;;;;;;;;7.25;7.25;;;;;26.84;59.94;100038.88;5015907;28;45592;-85
2021/09/14 11:45:56;;;;;;;;;7.00;7.00;;;;;26.94;60.29;100035.75;5015627;28;45402;-81
2021/09/14 11:48:27;;;;;;;;;6.50;5.00;;;;;27.08;58.67;100038.53;5015661;28;45221;-81
2021/09/14 11:51:02;;;;;;;;;7.75;5.75;;;;;27.15;55.82;100040.22;5016181;28;45386;-81
2021/09/14 11:53:28;;;;;;;;;6.00;6.00;;;;;27.03;57.67;100034.53;5015467;28;45417;-83
2021/09/14 11:55:54;;;;;;;;;6.75;6.50;;;;;27.09;58.36;100023.84;5015629;28;45260;-82
2021/09/14 11:58:36;;;;;;;;;6.00;5.00;;;;;27.32;57.01;100023.44;5034983;28;45189;-82
2021/09/14 12:01:07;;;;;;;;;6.25;5.00;;;;;27.47;56.09;100026.03;5033487;28;46378;-82
2021/09/14 12:03:54;;;;;;;;;6.50;5.50;;;;;27.62;56.61;100025.81;5038076;28;45625;-83
2021/09/14 12:06:28;;;;;;;;;4.50;4.50;;;;;27.76;53.13;100027.50;5038824;28;45287;-83
2021/09/14 12:08:59;;;;;;;;;4.00;4.00;;;;;27.64;54.32;100016.38;5034213;28;45243;-84
2021/09/14 12:11:31;;;;;;;;;8.00;4.25;;;;;27.58;53.04;100014.50;5032053;28;46507;-85
2021/09/14 12:13:59;;;;;;;;;7.50;6.25;;;;;27.54;53.83;100021.41;5033542;28;45521;-84
2021/09/14 12:16:29;;;;;;;;;8.00;7.25;;;;;27.50;54.29;100020.97;5038670;28;45259;-84
2021/09/14 12:18:56;;;;;;;;;5.50;5.00;;;;;27.43;53.89;100003.75;5039071;28;45201;-85
2021/09/14 12:21:22;;;;;;;;;5.50;5.50;;;;;27.37;54.28;99994.50;5038170;28;45204;-86
2021/09/14 12:23:48;;;;;;;;;5.75;5.75;;;;;27.41;54.15;100007.75;5038703;28;45180;-85
2021/09/14 12:26:27;;;;;;;;;6.25;5.75;;;;;27.43;53.77;100001.03;5038094;28;45333;-82
2021/09/14 12:28:55;;;;;;;;;5.50;5.00;;;;;27.51;53.58;100003.56;5039148;28;45215;-81
2021/09/14 12:31:21;;;;;;;;;5.75;5.50;;;;;27.63;53.41;100000.19;5038147;28;46119;-81
2021/09/14 12:33:47;;;;;;;;;3.75;3.75;;;;;27.79;53.29;100002.50;5038253;28;45547;-81
2021/09/14 12:36:13;;;;;;;;;6.00;4.75;;;;;27.84;52.74;100004.59;5038157;28;45269;-82